createdAt,value
2022-08-28T00:00:20.689Z,20.69
2022-08-28T00:01:20.672Z,20.59
2022-08-28T00:02:20.732Z,20.59
2022-08-28T00:03:20.673Z,20.64
2022-08-28T00:04:20.681Z,20.62
2022-08-28T00:05:20.644Z,20.66
2022-08-28T00:06:20.640Z,20.71
2022-08-28T00:07:20.621Z,20.79
2022-08-28T00:08:20.640Z,20.74
2022-08-28T00:09:20.612Z,20.80
2022-08-28T00:10:20.627Z,20.79
2022-08-28T00:11:20.608Z,20.69
2022-08-28T00:12:20.599Z,20.74
2022-08-28T00:13:20.607Z,20.66
2022-08-28T00:14:20.593Z,20.62
2022-08-28T00:15:20.585Z,20.59
2022-08-28T00:16:20.615Z,20.54
2022-08-28T00:17:20.576Z,20.51
2022-08-28T00:18:20.584Z,20.59
2022-08-28T00:19:20.550Z,20.59
2022-08-28T00:20:20.556Z,20.66
2022-08-28T00:21:20.544Z,20.58
2022-08-28T00:22:20.539Z,20.61
2022-08-28T00:23:20.531Z,20.66
2022-08-28T00:24:20.536Z,20.47
2022-08-28T00:25:20.515Z,20.43
2022-08-28T00:26:20.509Z,20.42
2022-08-28T00:27:20.514Z,20.35
2022-08-28T00:28:23.441Z,20.27
2022-08-28T00:29:20.520Z,20.39
2022-08-28T00:30:20.496Z,20.41
2022-08-28T00:31:20.524Z,20.34
2022-08-28T00:32:20.471Z,20.35
2022-08-28T00:33:20.479Z,20.31
2022-08-28T00:34:20.479Z,20.28
2022-08-28T00:35:21.452Z,20.27
2022-08-28T00:36:20.459Z,20.33
2022-08-28T00:37:20.448Z,20.39
2022-08-28T00:38:20.464Z,20.43
2022-08-28T00:39:20.436Z,20.46
2022-08-28T00:40:28.807Z,20.53
2022-08-28T00:41:24.813Z,20.49
2022-08-28T00:42:21.428Z,20.50
2022-08-28T00:43:20.411Z,20.42
2022-08-28T00:44:20.396Z,20.49
2022-08-28T00:45:20.420Z,20.47
2022-08-28T00:46:20.438Z,20.39
2022-08-28T00:47:20.387Z,20.31
2022-08-28T00:48:20.419Z,20.41
2022-08-28T00:49:20.375Z,20.50
2022-08-28T00:50:20.375Z,20.49
2022-08-28T00:51:20.359Z,20.49
2022-08-28T00:52:20.501Z,20.58
2022-08-28T00:53:20.339Z,20.50
2022-08-28T00:54:20.344Z,20.43
2022-08-28T00:55:20.455Z,20.56
2022-08-28T00:56:21.863Z,20.42
2022-08-28T00:57:20.855Z,20.38
2022-08-28T00:58:21.863Z,20.34
2022-08-28T00:59:20.303Z,20.42
2022-08-28T01:00:20.328Z,20.27
2022-08-28T01:01:20.340Z,20.43
2022-08-28T01:02:20.326Z,20.20
2022-08-28T01:03:20.283Z,20.28
2022-08-28T01:04:20.279Z,20.24
2022-08-28T01:05:20.276Z,20.21
2022-08-28T01:06:20.270Z,20.25
2022-08-28T01:07:20.255Z,20.18
2022-08-28T01:08:20.247Z,20.24
2022-08-28T01:09:20.975Z,20.16
2022-08-28T01:10:20.253Z,20.10
2022-08-28T01:11:20.223Z,20.27
2022-08-28T01:12:20.217Z,20.12
2022-08-28T01:13:20.215Z,20.20
2022-08-28T01:14:20.212Z,20.10
2022-08-28T01:15:20.211Z,20.13
2022-08-28T01:16:20.258Z,20.13
2022-08-28T01:17:20.194Z,20.08
2022-08-28T01:18:20.191Z,20.06
2022-08-28T01:19:20.179Z,20.10
2022-08-28T01:20:20.170Z,20.06
2022-08-28T01:21:20.697Z,20.15
2022-08-28T01:22:20.151Z,20.18
2022-08-28T01:23:20.141Z,19.97
2022-08-28T01:24:20.138Z,20.06
2022-08-28T01:25:20.143Z,20.03
2022-08-28T01:26:20.141Z,20.03
2022-08-28T01:27:20.122Z,20.02
2022-08-28T01:28:20.113Z,20.00
2022-08-28T01:29:20.111Z,20.08
2022-08-28T01:30:20.106Z,20.00
2022-08-28T01:31:20.187Z,20.06
2022-08-28T01:32:20.081Z,20.06
2022-08-28T01:33:20.083Z,19.98
2022-08-28T01:34:21.079Z,20.02
2022-08-28T01:35:20.063Z,19.90
2022-08-28T01:36:20.050Z,19.84
2022-08-28T01:37:20.082Z,19.88
2022-08-28T01:38:20.939Z,19.87
2022-08-28T01:39:21.049Z,19.86
2022-08-28T01:40:20.103Z,19.78
2022-08-28T01:41:20.027Z,19.76
2022-08-28T01:42:20.035Z,19.75
2022-08-28T01:43:20.023Z,19.69
2022-08-28T01:44:20.008Z,19.72
2022-08-28T01:45:20.003Z,19.58
2022-08-28T01:46:20.094Z,19.57
2022-08-28T01:47:19.979Z,19.51
2022-08-28T01:48:19.995Z,19.42
2022-08-28T01:49:19.987Z,19.50
2022-08-28T01:50:19.971Z,19.48
2022-08-28T01:51:24.020Z,19.50
2022-08-28T01:52:24.103Z,19.60
2022-08-28T01:53:20.960Z,19.43
2022-08-28T01:54:19.935Z,19.46
2022-08-28T01:55:21.436Z,19.46
2022-08-28T01:56:19.938Z,19.43
2022-08-28T01:57:19.927Z,19.32
2022-08-28T01:58:19.954Z,19.48
2022-08-28T01:59:19.915Z,19.47
2022-08-28T02:00:19.903Z,19.57
2022-08-28T02:01:19.939Z,19.63
2022-08-28T02:02:19.898Z,19.51
2022-08-28T02:03:19.900Z,19.55
2022-08-28T02:04:19.965Z,19.46
2022-08-28T02:05:20.875Z,19.47
2022-08-28T02:06:19.867Z,19.55
2022-08-28T02:07:19.854Z,19.55
2022-08-28T02:08:19.883Z,19.53
2022-08-28T02:09:19.851Z,19.65
2022-08-28T02:10:19.893Z,19.53
2022-08-28T02:11:19.833Z,19.66
2022-08-28T02:12:19.835Z,19.58
2022-08-28T02:13:19.852Z,19.69
2022-08-28T02:14:19.824Z,19.73
2022-08-28T02:15:19.816Z,19.87
2022-08-28T02:16:19.870Z,19.76
2022-08-28T02:17:19.806Z,19.76
2022-08-28T02:18:19.795Z,19.73
2022-08-28T02:19:19.799Z,19.75
2022-08-28T02:20:19.787Z,19.76
2022-08-28T02:21:19.779Z,19.68
2022-08-28T02:22:19.791Z,19.65
2022-08-28T02:23:19.763Z,19.58
2022-08-28T02:24:19.770Z,19.61
2022-08-28T02:25:19.755Z,19.55
2022-08-28T02:26:19.774Z,19.51
2022-08-28T02:27:19.739Z,19.54
2022-08-28T02:28:19.723Z,19.51
2022-08-28T02:29:19.736Z,19.46
2022-08-28T02:30:19.718Z,19.46
2022-08-28T02:31:19.745Z,19.42
2022-08-28T02:32:19.707Z,19.51
2022-08-28T02:33:19.698Z,19.53
2022-08-28T02:34:19.714Z,19.50
2022-08-28T02:35:19.695Z,19.43
2022-08-28T02:36:19.678Z,19.46
2022-08-28T02:37:19.667Z,19.58
2022-08-28T02:38:19.666Z,19.48
2022-08-28T02:39:19.676Z,19.42
2022-08-28T02:40:19.707Z,19.40
2022-08-28T02:41:19.643Z,19.46
2022-08-28T02:42:19.635Z,19.40
2022-08-28T02:43:19.635Z,19.48
2022-08-28T02:44:19.621Z,19.47
2022-08-28T02:45:19.622Z,19.53
2022-08-28T02:46:19.663Z,19.51
2022-08-28T02:47:19.607Z,19.38
2022-08-28T02:48:19.751Z,19.33
2022-08-28T02:49:19.599Z,19.21
2022-08-28T02:50:19.609Z,19.31
2022-08-28T02:51:19.577Z,19.36
2022-08-28T02:52:19.573Z,19.35
2022-08-28T02:53:19.572Z,19.28
2022-08-28T02:54:19.566Z,19.29
2022-08-28T02:55:19.572Z,19.29
2022-08-28T02:56:19.544Z,19.20
2022-08-28T02:57:19.532Z,19.17
2022-08-28T02:58:19.529Z,19.18
2022-08-28T02:59:19.527Z,19.08
2022-08-28T03:00:19.520Z,19.02
2022-08-28T03:01:19.556Z,19.08
2022-08-28T03:02:19.529Z,18.99
2022-08-28T03:03:19.496Z,19.02
2022-08-28T03:04:19.488Z,18.94
2022-08-28T03:05:20.488Z,18.86
2022-08-28T03:06:19.486Z,18.82
2022-08-28T03:07:19.468Z,18.91
2022-08-28T03:08:19.476Z,18.92
2022-08-28T03:09:19.460Z,18.94
2022-08-28T03:10:19.455Z,18.95
2022-08-28T03:11:19.457Z,19.08
2022-08-28T03:12:19.436Z,19.05
2022-08-28T03:13:26.496Z,18.99
2022-08-28T03:14:20.432Z,18.99
2022-08-28T03:15:19.416Z,19.11
2022-08-28T03:16:19.472Z,19.10
2022-08-28T03:17:19.419Z,19.02
2022-08-28T03:18:19.405Z,18.98
2022-08-28T03:19:19.396Z,18.94
2022-08-28T03:20:19.377Z,18.80
2022-08-28T03:21:19.375Z,18.84
2022-08-28T03:22:19.397Z,18.82
2022-08-28T03:23:19.472Z,18.76
2022-08-28T03:24:19.356Z,18.80
2022-08-28T03:25:19.351Z,18.95
2022-08-28T03:26:19.340Z,18.99
2022-08-28T03:27:19.360Z,18.99
2022-08-28T03:28:19.337Z,18.97
2022-08-28T03:29:19.313Z,18.97
2022-08-28T03:30:20.313Z,18.97
2022-08-28T03:31:19.398Z,18.91
2022-08-28T03:32:19.299Z,18.84
2022-08-28T03:33:19.305Z,18.87
2022-08-28T03:34:19.292Z,18.82
2022-08-28T03:35:19.288Z,18.83
2022-08-28T03:36:19.280Z,18.84
2022-08-28T03:37:19.276Z,18.77
2022-08-28T03:38:19.280Z,18.83
2022-08-28T03:39:19.260Z,18.74
2022-08-28T03:40:19.295Z,18.55
2022-08-28T03:41:19.261Z,18.52
2022-08-28T03:42:19.232Z,18.47
2022-08-28T03:43:19.235Z,18.46
2022-08-28T03:44:19.240Z,18.40
2022-08-28T03:45:19.204Z,18.34
2022-08-28T03:46:19.288Z,18.42
2022-08-28T03:47:19.209Z,18.33
2022-08-28T03:48:19.200Z,18.28
2022-08-28T03:49:19.188Z,18.46
2022-08-28T03:50:19.796Z,18.46
2022-08-28T03:51:19.175Z,18.43
2022-08-28T03:52:19.168Z,18.42
2022-08-28T03:53:19.180Z,18.37
2022-08-28T03:54:19.151Z,18.40
2022-08-28T03:55:19.153Z,18.42
2022-08-28T03:56:19.155Z,18.33
2022-08-28T03:57:19.135Z,18.43
2022-08-28T03:58:19.380Z,18.39
2022-08-28T03:59:19.120Z,18.34
2022-08-28T04:00:19.112Z,18.33
2022-08-28T04:01:19.191Z,18.52
2022-08-28T04:02:19.101Z,18.54
2022-08-28T04:03:19.154Z,18.61
2022-08-28T04:04:19.100Z,18.61
2022-08-28T04:05:19.080Z,18.50
2022-08-28T04:06:19.075Z,18.46
2022-08-28T04:07:19.073Z,18.37
2022-08-28T04:08:19.068Z,18.37
2022-08-28T04:09:19.063Z,18.37
2022-08-28T04:10:19.076Z,18.43
2022-08-28T04:11:19.039Z,18.42
2022-08-28T04:12:19.044Z,18.36
2022-08-28T04:13:19.024Z,18.31
2022-08-28T04:14:19.016Z,18.29
2022-08-28T04:15:19.028Z,18.34
2022-08-28T04:16:19.161Z,18.29
2022-08-28T04:17:19.012Z,18.31
2022-08-28T04:18:19.004Z,18.43
2022-08-28T04:19:18.988Z,18.39
2022-08-28T04:20:19.003Z,18.40
2022-08-28T04:21:19.008Z,18.27
2022-08-28T04:22:18.981Z,18.33
2022-08-28T04:23:18.963Z,18.31
2022-08-28T04:24:18.968Z,18.22
2022-08-28T04:25:18.952Z,18.21
2022-08-28T04:26:18.955Z,18.25
2022-08-28T04:27:18.943Z,18.17
2022-08-28T04:28:18.935Z,18.27
2022-08-28T04:29:18.926Z,18.24
2022-08-28T04:30:18.928Z,18.21
2022-08-28T04:31:18.950Z,18.25
2022-08-28T04:32:19.986Z,18.25
2022-08-28T04:33:18.899Z,18.40
2022-08-28T04:34:18.892Z,18.36
2022-08-28T04:35:18.884Z,18.37
2022-08-28T04:36:18.887Z,18.57
2022-08-28T04:37:18.892Z,18.46
2022-08-28T04:38:18.855Z,18.33
2022-08-28T04:39:18.866Z,18.31
2022-08-28T04:40:18.943Z,18.40
2022-08-28T04:41:18.849Z,18.39
2022-08-28T04:42:18.859Z,18.27
2022-08-28T04:43:18.857Z,18.33
2022-08-28T04:44:18.828Z,18.21
2022-08-28T04:45:18.815Z,18.21
2022-08-28T04:46:18.858Z,18.09
2022-08-28T04:47:18.803Z,18.04
2022-08-28T04:48:19.156Z,18.09
2022-08-28T04:49:18.779Z,18.06
2022-08-28T04:50:19.793Z,18.09
2022-08-28T04:51:18.783Z,18.13
2022-08-28T04:52:18.776Z,18.07
2022-08-28T04:53:18.763Z,18.13
2022-08-28T04:54:18.773Z,18.10
2022-08-28T04:55:18.751Z,18.09
2022-08-28T04:56:19.751Z,18.13
2022-08-28T04:57:18.755Z,17.95
2022-08-28T04:58:18.740Z,17.94
2022-08-28T04:59:19.755Z,17.79
2022-08-28T05:00:18.723Z,17.70
2022-08-28T05:01:18.919Z,17.66
2022-08-28T05:02:18.735Z,17.57
2022-08-28T05:03:18.709Z,17.67
2022-08-28T05:04:18.723Z,17.69
2022-08-28T05:05:18.687Z,17.76
2022-08-28T05:06:18.680Z,17.71
2022-08-28T05:07:18.671Z,17.76
2022-08-28T05:08:18.664Z,17.66
2022-08-28T05:09:18.655Z,17.64
2022-08-28T05:10:18.663Z,17.47
2022-08-28T05:11:32.880Z,17.55
2022-08-28T05:12:19.645Z,17.53
2022-08-28T05:13:18.635Z,17.50
2022-08-28T05:14:18.626Z,17.46
2022-08-28T05:15:18.639Z,17.43
2022-08-28T05:16:18.660Z,17.51
2022-08-28T05:17:18.603Z,17.57
2022-08-28T05:18:18.596Z,17.66
2022-08-28T05:19:18.591Z,17.57
2022-08-28T05:20:18.599Z,17.67
2022-08-28T05:21:18.583Z,17.53
2022-08-28T05:22:18.579Z,17.54
2022-08-28T05:23:18.562Z,17.67
2022-08-28T05:24:18.563Z,17.79
2022-08-28T05:25:18.556Z,17.85
2022-08-28T05:26:18.555Z,17.85
2022-08-28T05:27:18.550Z,17.92
2022-08-28T05:28:18.531Z,17.85
2022-08-28T05:29:18.525Z,17.69
2022-08-28T05:30:18.516Z,17.74
2022-08-28T05:31:18.580Z,17.70
2022-08-28T05:32:18.548Z,17.67
2022-08-28T05:33:18.496Z,17.84
2022-08-28T05:34:18.495Z,17.79
2022-08-28T05:35:18.483Z,17.87
2022-08-28T05:36:18.488Z,17.88
2022-08-28T05:37:19.792Z,17.88
2022-08-28T05:38:19.448Z,18.10
2022-08-28T05:39:18.463Z,18.15
2022-08-28T05:40:18.486Z,18.19
2022-08-28T05:41:18.443Z,18.27
2022-08-28T05:42:18.427Z,18.33
2022-08-28T05:43:18.432Z,18.39
2022-08-28T05:44:18.423Z,18.42
2022-08-28T05:45:18.402Z,18.39
2022-08-28T05:46:18.437Z,18.61
2022-08-28T05:47:18.404Z,18.59
2022-08-28T05:48:18.391Z,18.58
2022-08-28T05:49:18.408Z,18.61
2022-08-28T05:50:18.375Z,18.52
2022-08-28T05:51:18.363Z,18.61
2022-08-28T05:52:18.367Z,18.64
2022-08-28T05:53:18.346Z,18.68
2022-08-28T05:54:18.354Z,18.67
2022-08-28T05:55:18.360Z,18.65
2022-08-28T05:56:18.332Z,18.65
2022-08-28T05:57:18.339Z,18.74
2022-08-28T05:58:18.322Z,18.79
2022-08-28T05:59:18.325Z,18.90
2022-08-28T06:00:18.304Z,18.77
2022-08-28T06:01:18.300Z,18.73
2022-08-28T06:02:18.326Z,18.73
2022-08-28T06:03:18.287Z,18.91
2022-08-28T06:04:18.343Z,18.99
2022-08-28T06:05:18.275Z,18.98
2022-08-28T06:06:18.267Z,19.10
2022-08-28T06:07:18.266Z,19.14
2022-08-28T06:08:18.260Z,19.20
2022-08-28T06:09:18.259Z,19.25
2022-08-28T06:10:18.231Z,19.32
2022-08-28T06:11:18.235Z,19.29
2022-08-28T06:12:18.230Z,19.25
2022-08-28T06:13:18.248Z,19.36
2022-08-28T06:14:18.249Z,19.43
2022-08-28T06:15:18.219Z,19.33
2022-08-28T06:16:18.229Z,19.42
2022-08-28T06:17:23.466Z,19.48
2022-08-28T06:18:19.188Z,19.35
2022-08-28T06:19:18.174Z,19.53
2022-08-28T06:20:18.193Z,19.60
2022-08-28T06:21:18.174Z,19.55
2022-08-28T06:22:18.159Z,19.53
2022-08-28T06:23:23.887Z,19.66
2022-08-28T06:24:19.142Z,19.73
2022-08-28T06:25:18.139Z,19.94
2022-08-28T06:26:18.154Z,20.05
2022-08-28T06:27:18.162Z,20.12
2022-08-28T06:28:18.111Z,20.34
2022-08-28T06:29:18.111Z,20.38
2022-08-28T06:30:18.107Z,20.59
2022-08-28T06:31:24.282Z,20.61
2022-08-28T06:32:20.185Z,20.65
2022-08-28T06:33:18.090Z,20.62
2022-08-28T06:34:18.078Z,20.81
2022-08-28T06:35:18.078Z,21.02
2022-08-28T06:36:18.075Z,21.23
2022-08-28T06:37:18.071Z,21.36
2022-08-28T06:38:18.054Z,21.56
2022-08-28T06:39:18.051Z,21.76
2022-08-28T06:40:18.106Z,21.97
2022-08-28T06:41:18.034Z,22.28
2022-08-28T06:42:18.030Z,22.31
2022-08-28T06:43:18.038Z,22.31
2022-08-28T06:44:18.019Z,22.53
2022-08-28T06:45:18.006Z,22.67
2022-08-28T06:46:18.067Z,22.82
2022-08-28T06:47:17.994Z,23.02
2022-08-28T06:48:18.002Z,23.09
2022-08-28T06:49:17.978Z,23.26
2022-08-28T06:50:17.973Z,23.23
2022-08-28T06:51:17.968Z,23.27
2022-08-28T06:52:17.958Z,23.31
2022-08-28T06:53:17.952Z,23.47
2022-08-28T06:54:22.216Z,23.67
2022-08-28T06:55:19.938Z,23.87
2022-08-28T06:56:26.215Z,24.01
2022-08-28T06:57:18.922Z,24.26
2022-08-28T06:58:17.917Z,24.42
2022-08-28T06:59:17.928Z,24.53
2022-08-28T07:00:17.950Z,24.56
2022-08-28T07:01:17.955Z,24.63
2022-08-28T07:02:17.970Z,24.69
2022-08-28T07:03:17.886Z,24.50
2022-08-28T07:04:17.883Z,24.04
2022-08-28T07:05:17.883Z,24.05
2022-08-28T07:06:17.870Z,24.41
2022-08-28T07:07:31.535Z,24.26
2022-08-28T07:08:18.858Z,23.80
2022-08-28T07:09:17.847Z,23.52
2022-08-28T07:10:17.866Z,23.55
2022-08-28T07:11:17.839Z,23.15
2022-08-28T07:12:17.826Z,23.64
2022-08-28T07:13:17.815Z,23.58
2022-08-28T07:14:17.875Z,23.42
2022-08-28T07:15:17.815Z,23.05
2022-08-28T07:16:17.866Z,23.15
2022-08-28T07:17:17.802Z,22.90
2022-08-28T07:18:17.794Z,22.77
2022-08-28T07:19:17.789Z,23.04
2022-08-28T07:20:17.825Z,22.92
2022-08-28T07:21:17.785Z,22.53
2022-08-28T07:22:17.762Z,22.20
2022-08-28T07:23:17.754Z,22.22
2022-08-28T07:24:17.762Z,22.39
2022-08-28T07:25:17.738Z,22.10
2022-08-28T07:26:17.741Z,22.12
2022-08-28T07:27:19.147Z,22.19
2022-08-28T07:28:18.725Z,22.14
2022-08-28T07:29:17.717Z,22.12
2022-08-28T07:30:17.714Z,22.16
2022-08-28T07:31:17.760Z,22.53
2022-08-28T07:32:17.727Z,22.59
2022-08-28T07:33:17.686Z,22.74
2022-08-28T07:34:18.691Z,22.75
2022-08-28T07:35:17.688Z,23.14
2022-08-28T07:36:29.189Z,23.05
2022-08-28T07:37:18.681Z,23.14
2022-08-28T07:38:17.739Z,23.01
2022-08-28T07:39:17.653Z,23.45
2022-08-28T07:40:17.695Z,23.53
2022-08-28T07:41:17.647Z,23.55
2022-08-28T07:42:17.635Z,24.45
2022-08-28T07:43:17.651Z,25.20
2022-08-28T07:44:17.615Z,25.90
2022-08-28T07:45:17.720Z,25.57
2022-08-28T07:46:17.616Z,25.31
2022-08-28T07:47:17.631Z,24.95
2022-08-28T07:48:18.020Z,25.69
2022-08-28T07:49:17.583Z,26.29
2022-08-28T07:50:17.607Z,26.08
2022-08-28T07:51:17.580Z,26.49
2022-08-28T07:52:17.569Z,27.09
2022-08-28T07:53:17.568Z,27.69
2022-08-28T07:54:18.135Z,27.98
2022-08-28T07:55:17.547Z,28.60
2022-08-28T07:56:17.555Z,28.97
2022-08-28T07:57:17.536Z,28.88
2022-08-28T07:58:17.528Z,29.03
2022-08-28T07:59:17.563Z,29.37
2022-08-28T08:00:17.515Z,28.90
2022-08-28T08:01:17.566Z,29.25
2022-08-28T08:02:17.510Z,29.41
2022-08-28T08:03:17.516Z,29.96
2022-08-28T08:04:17.508Z,30.38
2022-08-28T08:05:17.492Z,30.83
2022-08-28T08:06:17.482Z,31.50
2022-08-28T08:07:17.490Z,31.64
2022-08-28T08:08:17.502Z,32.13
2022-08-28T08:09:17.466Z,32.67
2022-08-28T08:10:20.563Z,32.93
2022-08-28T08:11:17.463Z,33.22
2022-08-28T08:12:17.448Z,33.01
2022-08-28T08:13:17.449Z,32.02
2022-08-28T08:14:17.438Z,31.72
2022-08-28T08:15:17.442Z,32.17
2022-08-28T08:16:17.471Z,32.47
2022-08-28T08:17:17.422Z,32.67
2022-08-28T08:18:17.407Z,33.10
2022-08-28T08:19:17.411Z,33.58
2022-08-28T08:20:17.403Z,34.01
2022-08-28T08:21:17.415Z,33.94
2022-08-28T08:22:17.386Z,34.00
2022-08-28T08:23:17.383Z,34.38
2022-08-28T08:24:19.730Z,34.31
2022-08-28T08:25:17.365Z,33.89
2022-08-28T08:26:17.378Z,33.29
2022-08-28T08:27:17.350Z,33.08
2022-08-28T08:28:17.342Z,32.74
2022-08-28T08:29:17.325Z,32.71
2022-08-28T08:30:17.326Z,32.20
2022-08-28T08:31:17.383Z,31.80
2022-08-28T08:32:17.334Z,31.05
2022-08-28T08:33:17.315Z,30.49
2022-08-28T08:34:17.303Z,29.84
2022-08-28T08:35:17.293Z,29.92
2022-08-28T08:36:17.293Z,29.56
2022-08-28T08:37:17.313Z,29.07
2022-08-28T08:38:17.282Z,28.84
2022-08-28T08:39:17.269Z,28.60
2022-08-28T08:40:17.299Z,28.23
2022-08-28T08:41:17.274Z,28.28
2022-08-28T08:42:17.270Z,28.77
2022-08-28T08:43:17.342Z,29.57
2022-08-28T08:44:17.262Z,30.49
2022-08-28T08:45:17.253Z,31.15
2022-08-28T08:46:17.287Z,31.77
2022-08-28T08:47:17.230Z,32.49
2022-08-28T08:48:17.227Z,33.06
2022-08-28T08:49:17.218Z,33.79
2022-08-28T08:50:17.221Z,34.32
2022-08-28T08:51:17.210Z,34.77
2022-08-28T08:52:17.207Z,35.07
2022-08-28T08:53:17.186Z,35.23
2022-08-28T08:54:17.190Z,35.72
2022-08-28T08:55:17.241Z,35.13
2022-08-28T08:56:17.170Z,35.06
2022-08-28T08:57:17.167Z,34.77
2022-08-28T08:58:17.199Z,34.89
2022-08-28T08:59:17.151Z,35.39
2022-08-28T09:00:17.231Z,35.63
2022-08-28T09:01:17.285Z,35.58
2022-08-28T09:02:17.141Z,35.79
2022-08-28T09:03:17.223Z,35.33
2022-08-28T09:04:21.495Z,34.64
2022-08-28T09:05:17.133Z,33.23
2022-08-28T09:06:17.150Z,31.85
2022-08-28T09:07:17.117Z,31.42
2022-08-28T09:08:17.097Z,30.26
2022-08-28T09:09:17.105Z,29.77
2022-08-28T09:10:17.102Z,29.59
2022-08-28T09:11:17.097Z,29.63
2022-08-28T09:12:17.097Z,30.11
2022-08-28T09:13:17.086Z,29.34
2022-08-28T09:14:17.091Z,28.07
2022-08-28T09:15:17.070Z,28.17
2022-08-28T09:16:17.124Z,28.40
2022-08-28T09:17:17.072Z,28.23
2022-08-28T09:18:17.049Z,28.87
2022-08-28T09:19:17.048Z,28.56
2022-08-28T09:20:17.040Z,27.98
2022-08-28T09:21:17.033Z,27.26
2022-08-28T09:22:17.119Z,26.77
2022-08-28T09:23:17.045Z,26.28
2022-08-28T09:24:17.017Z,26.39
2022-08-28T09:25:17.073Z,26.49
2022-08-28T09:26:17.060Z,26.24
2022-08-28T09:27:16.998Z,26.25
2022-08-28T09:28:16.990Z,26.49
2022-08-28T09:29:16.979Z,27.06
2022-08-28T09:30:16.980Z,27.06
2022-08-28T09:31:20.166Z,26.58
2022-08-28T09:32:16.969Z,25.93
2022-08-28T09:33:16.957Z,25.77
2022-08-28T09:34:16.952Z,25.90
2022-08-28T09:35:16.936Z,25.89
2022-08-28T09:36:16.937Z,27.09
2022-08-28T09:37:16.952Z,27.77
2022-08-28T09:38:16.977Z,28.11
2022-08-28T09:39:16.919Z,28.58
2022-08-28T09:40:16.980Z,28.78
2022-08-28T09:41:16.899Z,28.91
2022-08-28T09:42:16.907Z,29.00
2022-08-28T09:43:16.920Z,29.28
2022-08-28T09:44:16.890Z,29.43
2022-08-28T09:45:16.890Z,29.57
2022-08-28T09:46:17.017Z,29.74
2022-08-28T09:47:16.871Z,30.36
2022-08-28T09:48:16.895Z,30.18
2022-08-28T09:49:16.879Z,29.41
2022-08-28T09:50:16.867Z,29.41
2022-08-28T09:51:16.856Z,29.45
2022-08-28T09:52:18.186Z,29.50
2022-08-28T09:53:16.946Z,28.90
2022-08-28T09:54:16.839Z,28.95
2022-08-28T09:55:16.879Z,28.77
2022-08-28T09:56:16.825Z,29.06
2022-08-28T09:57:16.818Z,29.07
2022-08-28T09:58:16.862Z,29.13
2022-08-28T09:59:16.819Z,29.28
2022-08-28T10:00:16.803Z,29.71
2022-08-28T10:01:16.913Z,30.03
2022-08-28T10:02:16.799Z,30.30
2022-08-28T10:03:16.783Z,30.54
2022-08-28T10:04:16.948Z,31.02
2022-08-28T10:05:16.783Z,31.08
2022-08-28T10:06:16.840Z,30.75
2022-08-28T10:07:16.767Z,30.43
2022-08-28T10:08:16.767Z,30.31
2022-08-28T10:09:16.759Z,29.82
2022-08-28T10:10:17.335Z,30.12
2022-08-28T10:11:16.742Z,30.53
2022-08-28T10:12:16.738Z,30.53
2022-08-28T10:13:16.754Z,30.74
2022-08-28T10:14:16.753Z,30.98
2022-08-28T10:15:16.715Z,31.17
2022-08-28T10:16:16.795Z,31.06
2022-08-28T10:17:16.760Z,31.13
2022-08-28T10:18:16.709Z,31.58
2022-08-28T10:19:16.697Z,31.43
2022-08-28T10:20:16.705Z,31.82
2022-08-28T10:21:16.706Z,31.67
2022-08-28T10:22:16.690Z,31.49
2022-08-28T10:23:17.797Z,31.75
2022-08-28T10:24:26.037Z,31.80
2022-08-28T10:25:17.680Z,31.84
2022-08-28T10:26:16.659Z,32.36
2022-08-28T10:27:16.650Z,32.74
2022-08-28T10:28:16.646Z,32.39
2022-08-28T10:29:16.646Z,31.92
2022-08-28T10:30:16.650Z,31.76
2022-08-28T10:31:16.828Z,31.77
2022-08-28T10:32:16.620Z,31.68
2022-08-28T10:33:16.622Z,31.79
2022-08-28T10:34:16.618Z,31.88
2022-08-28T10:35:16.616Z,32.37
2022-08-28T10:36:33.854Z,33.20
2022-08-28T10:37:17.602Z,33.71
2022-08-28T10:38:16.610Z,33.67
2022-08-28T10:39:16.594Z,33.23
2022-08-28T10:40:16.620Z,33.80
2022-08-28T10:41:16.599Z,33.46
2022-08-28T10:42:16.606Z,33.10
2022-08-28T10:43:16.574Z,33.41
2022-08-28T10:44:16.582Z,33.65
2022-08-28T10:45:16.573Z,33.97
2022-08-28T10:46:16.633Z,35.20
2022-08-28T10:47:16.586Z,34.98
2022-08-28T10:48:16.583Z,34.39
2022-08-28T10:49:16.554Z,33.68
2022-08-28T10:50:16.556Z,33.49
2022-08-28T10:51:16.546Z,33.06
2022-08-28T10:52:16.538Z,32.33
2022-08-28T10:53:16.554Z,31.68
2022-08-28T10:54:16.533Z,31.96
2022-08-28T10:55:16.523Z,31.85
2022-08-28T10:56:16.544Z,31.80
2022-08-28T10:57:16.515Z,32.57
2022-08-28T10:58:24.424Z,32.70
2022-08-28T10:59:17.514Z,32.27
2022-08-28T11:00:16.505Z,31.82
2022-08-28T11:01:16.554Z,31.58
2022-08-28T11:02:16.547Z,32.11
2022-08-28T11:03:33.462Z,32.54
2022-08-28T11:04:24.909Z,32.74
2022-08-28T11:05:18.481Z,33.52
2022-08-28T11:06:16.477Z,34.14
2022-08-28T11:07:16.462Z,34.53
2022-08-28T11:08:16.474Z,34.32
2022-08-28T11:09:16.478Z,33.64
2022-08-28T11:10:16.449Z,34.13
2022-08-28T11:11:16.446Z,34.48
2022-08-28T11:12:16.459Z,34.58
2022-08-28T11:13:16.462Z,33.98
2022-08-28T11:14:16.458Z,33.87
2022-08-28T11:15:16.526Z,34.11
2022-08-28T11:16:16.491Z,34.29
2022-08-28T11:17:16.429Z,34.26
2022-08-28T11:18:16.435Z,34.50
2022-08-28T11:19:16.421Z,34.24
2022-08-28T11:20:16.409Z,33.95
2022-08-28T11:21:17.409Z,34.14
2022-08-28T11:22:16.422Z,34.61
2022-08-28T11:23:17.954Z,34.27
2022-08-28T11:24:16.397Z,34.24
2022-08-28T11:25:16.409Z,34.23
2022-08-28T11:26:16.393Z,33.63
2022-08-28T11:27:16.390Z,32.95
2022-08-28T11:28:16.378Z,33.23
2022-08-28T11:29:16.382Z,33.68
2022-08-28T11:30:16.381Z,33.79
2022-08-28T11:31:25.679Z,33.61
2022-08-28T11:32:17.357Z,33.64
2022-08-28T11:33:16.365Z,33.73
2022-08-28T11:34:16.350Z,34.46
2022-08-28T11:35:16.349Z,34.50
2022-08-28T11:36:16.357Z,34.57
2022-08-28T11:37:16.341Z,35.03
2022-08-28T11:38:19.596Z,35.21
2022-08-28T11:39:17.341Z,34.53
2022-08-28T11:40:16.382Z,34.17
2022-08-28T11:41:16.492Z,34.31
2022-08-28T11:42:16.315Z,34.60
2022-08-28T11:43:16.974Z,35.02
2022-08-28T11:44:16.305Z,35.25
2022-08-28T11:45:16.298Z,34.76
2022-08-28T11:46:18.218Z,34.66
2022-08-28T11:47:16.293Z,34.70
2022-08-28T11:48:16.290Z,34.76
2022-08-28T11:49:16.286Z,34.76
2022-08-28T11:50:16.269Z,34.69
2022-08-28T11:51:16.289Z,34.17
2022-08-28T11:52:16.261Z,34.73
2022-08-28T11:53:16.257Z,34.73
2022-08-28T11:54:16.254Z,34.56
2022-08-28T11:55:16.261Z,34.42
2022-08-28T11:56:21.771Z,33.98
2022-08-28T11:57:17.261Z,34.74
2022-08-28T11:58:16.266Z,34.76
2022-08-28T11:59:16.225Z,35.08
2022-08-28T12:00:16.238Z,35.13
2022-08-28T12:01:16.221Z,34.44
2022-08-28T12:02:16.278Z,34.29
2022-08-28T12:03:16.214Z,33.83
2022-08-28T12:04:16.220Z,33.85
2022-08-28T12:05:16.211Z,33.94
2022-08-28T12:06:16.213Z,33.95
2022-08-28T12:07:16.265Z,34.27
2022-08-28T12:08:16.198Z,34.34
2022-08-28T12:09:16.182Z,34.41
2022-08-28T12:10:16.178Z,34.41
2022-08-28T12:11:16.173Z,33.94
2022-08-28T12:12:16.177Z,34.13
2022-08-28T12:13:16.181Z,33.64
2022-08-28T12:14:16.158Z,33.98
2022-08-28T12:15:16.156Z,33.08
2022-08-28T12:16:16.256Z,32.84
2022-08-28T12:17:16.142Z,32.67
2022-08-28T12:18:16.186Z,32.54
2022-08-28T12:19:16.145Z,32.55
2022-08-28T12:20:16.141Z,32.86
2022-08-28T12:21:16.123Z,33.17
2022-08-28T12:22:16.121Z,33.37
2022-08-28T12:23:16.121Z,33.61
2022-08-28T12:24:16.137Z,33.17
2022-08-28T12:25:16.109Z,33.51
2022-08-28T12:26:16.101Z,33.11
2022-08-28T12:27:16.109Z,33.20
2022-08-28T12:28:16.090Z,32.79
2022-08-28T12:29:16.121Z,32.40
2022-08-28T12:30:16.087Z,32.39
2022-08-28T12:31:16.124Z,32.69
2022-08-28T12:32:16.071Z,32.69
2022-08-28T12:33:16.071Z,33.17
2022-08-28T12:34:16.065Z,32.92
2022-08-28T12:35:16.761Z,32.62
2022-08-28T12:36:17.058Z,32.64
2022-08-28T12:37:16.041Z,33.01
2022-08-28T12:38:16.041Z,32.59
2022-08-28T12:39:16.041Z,32.25
2022-08-28T12:40:16.112Z,32.22
2022-08-28T12:41:16.033Z,32.51
2022-08-28T12:42:16.021Z,32.69
2022-08-28T12:43:16.017Z,32.39
2022-08-28T12:44:16.017Z,31.88
2022-08-28T12:45:16.025Z,31.57
2022-08-28T12:46:19.087Z,31.08
2022-08-28T12:47:16.005Z,31.13
2022-08-28T12:48:15.997Z,31.04
2022-08-28T12:49:16.670Z,31.02
2022-08-28T12:50:16.018Z,30.87
2022-08-28T12:51:15.995Z,31.04
2022-08-28T12:52:17.050Z,30.83